Time;durP1;ratioP1;P1;durP2;ratioP2;P2;SDS_P1;SDS_P2;PMS_P1;PMS_P2;Temp;Humidity;BMP_temperature;BMP_pressure;BME280_temperature;BME280_humidity;BME280_pressure;Samples;Min_cycle;Max_cycle;Signal;HPM_P1;HPM_P2
2022/08/26 00:02:12;;;;;;;12.43;9.20;;;;;;;24.16;54.46;97712.91;8254781;28;20233;-77
2022/08/26 00:06:19;;;;;;;14.37;9.87;;;;;;;24.12;54.96;97713.38;8254923;28;20418;-77
2022/08/26 00:10:23;;;;;;;12.93;9.50;;;;;;;24.03;54.66;97706.38;8254541;28;20231;-77
2022/08/26 00:14:27;;;;;;;17.00;9.90;;;;;;;23.96;55.04;97714.97;8254414;28;20237;-78
2022/08/26 00:18:33;;;;;;;12.00;9.70;;;;;;;24.00;54.68;97703.06;8254504;28;20234;-78
2022/08/26 00:22:43;;;;;;;15.57;10.10;;;;;;;23.97;54.93;97708.69;8254197;28;20245;-77
2022/08/26 00:26:46;;;;;;;12.40;10.23;;;;;;;23.88;55.08;97708.81;8254154;28;20237;-77
2022/08/26 00:30:49;;;;;;;19.47;10.93;;;;;;;23.89;55.13;97703.34;8260845;28;20247;-77
2022/08/26 00:34:53;;;;;;;18.97;10.30;;;;;;;23.79;55.64;97702.66;8255669;28;20310;-77
2022/08/26 00:38:57;;;;;;;13.27;10.70;;;;;;;23.77;55.18;97704.59;8254075;28;20359;-78
2022/08/26 00:43:01;;;;;;;14.23;10.90;;;;;;;23.76;55.02;97708.22;8254303;28;20246;-77
2022/08/26 00:47:13;;;;;;;19.90;11.37;;;;;;;23.73;55.03;97706.72;8253739;28;20445;-77
2022/08/26 00:51:20;;;;;;;12.00;10.80;;;;;;;23.68;55.50;97710.81;8253704;28;20243;-78
2022/08/26 00:55:30;;;;;;;17.83;10.57;;;;;;;23.61;55.36;97708.81;8253531;28;20305;-77
2022/08/26 00:59:40;;;;;;;18.43;11.20;;;;;;;23.50;55.45;97709.09;8253228;28;20239;-77
2022/08/26 01:03:44;;;;;;;15.50;10.83;;;;;;;23.43;56.13;97706.22;8252705;28;20255;-77
2022/08/26 01:07:46;;;;;;;17.93;11.33;;;;;;;23.39;56.66;97706.69;8253230;28;20238;-77
2022/08/26 01:11:56;;;;;;;17.00;11.70;;;;;;;23.43;56.04;97708.03;8252380;28;20296;-77
2022/08/26 01:16:01;;;;;;;13.30;11.47;;;;;;;23.47;56.00;97706.75;8253018;28;20241;-77
2022/08/26 01:20:08;;;;;;;17.40;11.90;;;;;;;23.38;56.44;97705.88;8252895;28;20317;-77
2022/08/26 01:24:16;;;;;;;14.50;11.47;;;;;;;23.34;56.48;97701.88;8252531;28;20494;-77
2022/08/26 01:28:24;;;;;;;14.40;11.80;;;;;;;23.36;56.66;97701.72;8252220;28;20231;-77
2022/08/26 01:32:28;;;;;;;15.07;11.83;;;;;;;23.32;56.46;97700.38;8251854;28;20246;-78
2022/08/26 01:36:31;;;;;;;19.00;11.63;;;;;;;23.39;56.67;97704.06;8252209;28;20261;-77
2022/08/26 01:40:37;;;;;;;12.37;11.10;;;;;;;23.36;56.31;97704.34;8252111;28;20235;-77
2022/08/26 01:44:43;;;;;;;16.10;11.70;;;;;;;23.23;56.67;97716.16;8252060;28;20226;-78
2022/08/26 01:48:48;;;;;;;14.80;10.87;;;;;;;23.33;56.79;97702.03;8251892;28;20231;-77
2022/08/26 01:52:56;;;;;;;19.53;12.03;;;;;;;23.27;56.90;97702.66;8251377;28;20226;-77
2022/08/26 01:57:01;;;;;;;18.53;12.40;;;;;;;23.27;57.14;97700.03;8251463;28;20481;-77
2022/08/26 02:01:05;;;;;;;24.30;12.30;;;;;;;23.25;57.23;97700.19;8251347;28;20241;-77
2022/08/26 02:05:10;;;;;;;17.37;11.50;;;;;;;23.23;57.27;97692.41;8251866;28;20302;-77
2022/08/26 02:09:13;;;;;;;20.37;11.33;;;;;;;23.23;57.14;97696.84;8251330;28;20234;-77
2022/08/26 02:13:18;;;;;;;17.93;12.13;;;;;;;23.17;57.31;97692.16;8250432;28;20287;-77
2022/08/26 02:17:23;;;;;;;17.30;11.13;;;;;;;23.13;56.61;97701.38;8250846;28;20289;-77
2022/08/26 02:21:26;;;;;;;14.20;10.13;;;;;;;23.17;56.40;97700.09;8250829;28;20242;-77
2022/08/26 02:25:32;;;;;;;15.00;10.60;;;;;;;23.11;56.54;97700.72;8250824;28;20516;-77
2022/08/26 02:29:37;;;;;;;18.57;11.60;;;;;;;23.09;57.09;97705.31;8250776;28;20378;-77
2022/08/26 02:33:40;;;;;;;14.67;11.10;;;;;;;23.09;56.54;97705.31;8250575;28;20265;-77
2022/08/26 02:37:45;;;;;;;14.87;11.70;;;;;;;22.94;56.66;97697.09;8250441;28;20238;-77
2022/08/26 02:41:50;;;;;;;13.90;11.17;;;;;;;22.88;57.52;97703.81;8250016;28;20354;-77
2022/08/26 02:45:55;;;;;;;17.23;10.73;;;;;;;22.86;57.44;97699.66;8250279;28;20416;-77
2022/08/26 02:49:57;;;;;;;13.50;11.03;;;;;;;22.83;57.66;97700.81;8250269;28;20241;-77
2022/08/26 02:54:00;;;;;;;12.93;10.83;;;;;;;22.79;57.39;97699.44;8250023;28;20238;-77
2022/08/26 02:58:03;;;;;;;17.20;11.30;;;;;;;22.78;57.40;97693.31;8250374;28;20242;-77
2022/08/26 03:02:09;;;;;;;18.20;12.17;;;;;;;22.75;57.65;97695.44;8250019;28;20517;-77
2022/08/26 03:06:12;;;;;;;15.20;11.47;;;;;;;22.72;57.43;97688.66;8250067;28;20465;-77
2022/08/26 03:10:15;;;;;;;17.50;11.83;;;;;;;22.63;57.77;97692.19;8249840;28;20234;-77
2022/08/26 03:14:18;;;;;;;18.90;12.37;;;;;;;22.55;57.62;97686.84;8249895;28;20241;-77
2022/08/26 03:18:22;;;;;;;18.07;11.70;;;;;;;22.57;57.72;97680.44;8249828;28;20296;-77
2022/08/26 03:22:26;;;;;;;16.77;12.17;;;;;;;22.60;57.88;97677.50;8249563;28;20560;-77
2022/08/26 03:26:29;;;;;;;19.53;13.43;;;;;;;22.50;58.35;97678.56;8253985;28;20249;-78
2022/08/26 03:30:41;;;;;;;19.13;13.13;;;;;;;22.52;57.69;97685.34;8256066;28;20245;-77
2022/08/26 03:34:48;;;;;;;22.17;13.03;;;;;;;22.42;58.26;97671.41;8255506;28;20258;-75
2022/08/26 03:38:51;;;;;;;17.27;12.00;;;;;;;22.50;58.22;97668.81;8255892;28;20529;-77
2022/08/26 03:42:54;;;;;;;18.33;12.33;;;;;;;22.53;58.15;97675.63;8255695;28;20309;-77
2022/08/26 03:46:57;;;;;;;14.40;12.43;;;;;;;22.43;58.10;97675.69;8255500;28;20240;-77
2022/08/26 03:51:01;;;;;;;19.57;12.17;;;;;;;22.42;58.11;97672.22;8255548;28;20325;-79
2022/08/26 03:55:06;;;;;;;18.23;12.30;;;;;;;22.44;58.29;97675.53;8255156;28;20234;-78
2022/08/26 03:59:09;;;;;;;19.27;12.67;;;;;;;22.28;58.00;97662.19;8255024;28;20241;-77
2022/08/26 04:03:13;;;;;;;16.13;12.50;;;;;;;22.40;58.09;97670.72;8254935;28;20238;-77
2022/08/26 04:07:24;;;;;;;18.07;11.83;;;;;;;22.32;57.85;97662.72;8254936;28;20242;-78
2022/08/26 04:11:30;;;;;;;19.70;12.53;;;;;;;22.25;57.84;97673.03;8254743;28;20238;-77
2022/08/26 04:15:38;;;;;;;15.60;11.90;;;;;;;22.21;58.13;97677.75;8254506;28;20241;-77
2022/08/26 04:19:40;;;;;;;15.97;11.70;;;;;;;22.23;57.81;97674.97;8254609;28;20265;-77
2022/08/26 04:23:45;;;;;;;20.10;12.60;;;;;;;22.16;57.62;97669.47;8253818;28;20245;-77
2022/08/26 04:27:49;;;;;;;21.17;12.67;;;;;;;22.12;58.55;97667.25;8254074;28;20250;-77
2022/08/26 04:31:54;;;;;;;17.23;13.03;;;;;;;22.04;58.87;97670.63;8254197;28;20230;-77
2022/08/26 04:36:01;;;;;;;15.73;13.07;;;;;;;22.07;58.33;97670.34;8253277;28;20242;-77
2022/08/26 04:40:08;;;;;;;18.57;12.87;;;;;;;22.11;58.46;97676.16;8253938;28;20254;-77
2022/08/26 04:44:11;;;;;;;18.63;12.37;;;;;;;22.07;58.35;97670.34;8253756;28;20452;-77
2022/08/26 04:48:14;;;;;;;16.50;13.13;;;;;;;22.06;58.47;97668.69;8253990;28;20285;-77
2022/08/26 04:52:20;;;;;;;19.90;12.73;;;;;;;22.01;58.44;97673.59;8253638;28;20238;-78
2022/08/26 04:56:26;;;;;;;18.00;13.80;;;;;;;22.04;58.62;97676.72;8253663;28;20238;-77
2022/08/26 05:00:29;;;;;;;24.27;14.40;;;;;;;22.09;58.72;97678.94;8253476;28;20524;-77
2022/08/26 05:04:33;;;;;;;16.70;13.77;;;;;;;22.08;58.70;97684.34;8253370;28;20245;-77
2022/08/26 05:08:36;;;;;;;16.70;13.30;;;;;;;22.10;58.73;97677.94;8253291;28;20240;-77
2022/08/26 05:12:40;;;;;;;19.90;13.77;;;;;;;22.19;58.35;97684.97;8253136;28;20258;-77
2022/08/26 05:16:45;;;;;;;18.53;12.97;;;;;;;22.21;58.27;97683.00;8253058;28;20285;-77
2022/08/26 05:20:52;;;;;;;25.50;15.10;;;;;;;22.22;58.13;97687.31;8255768;28;20237;-78
2022/08/26 05:24:56;;;;;;;21.70;15.07;;;;;;;22.27;59.17;97686.06;8254590;28;20611;-77
2022/08/26 05:29:00;;;;;;;22.43;15.53;;;;;;;22.46;59.24;97685.94;8252555;28;20245;-78
2022/08/26 05:33:04;;;;;;;20.07;14.07;;;;;;;22.57;58.79;97684.91;8252306;28;20239;-78
2022/08/26 05:37:07;;;;;;;23.57;14.70;;;;;;;22.62;58.66;97687.91;8252478;28;20308;-78
2022/08/26 05:41:15;;;;;;;20.27;13.93;;;;;;;22.84;57.90;97686.63;8252624;28;20233;-77
2022/08/26 05:45:22;;;;;;;21.70;13.90;;;;;;;22.99;57.62;97686.91;8252193;28;20513;-77
2022/08/26 05:49:25;;;;;;;24.33;15.03;;;;;;;23.02;58.17;97689.25;8251828;28;20429;-77
2022/08/26 05:53:28;;;;;;;26.60;14.53;;;;;;;23.08;58.37;97691.31;8251648;28;20405;-78
2022/08/26 05:57:31;;;;;;;22.97;14.73;;;;;;;23.28;57.81;97694.56;8251580;28;20242;-78
2022/08/26 06:01:35;;;;;;;24.93;13.97;;;;;;;23.60;57.25;97704.50;8251599;28;20230;-78
2022/08/26 06:05:39;;;;;;;25.30;14.20;;;;;;;23.75;57.16;97699.47;8251051;28;20246;-78
2022/08/26 06:09:41;;;;;;;25.47;14.47;;;;;;;23.76;57.20;97695.84;8251589;28;20234;-78
2022/08/26 06:13:44;;;;;;;23.83;13.77;;;;;;;23.99;56.67;97703.25;8251249;28;20436;-78
2022/08/26 06:17:48;;;;;;;20.57;13.40;;;;;;;24.14;55.98;97712.22;8250790;28;20394;-76
2022/08/26 06:21:51;;;;;;;21.57;13.67;;;;;;;24.19;55.36;97715.19;8250411;28;20341;-77
2022/08/26 06:25:55;;;;;;;21.37;13.83;;;;;;;24.31;55.42;97715.75;8250712;28;20238;-78
2022/08/26 06:29:58;;;;;;;25.80;13.87;;;;;;;24.09;56.37;97716.34;8250646;28;20513;-77
2022/08/26 06:34:04;;;;;;;24.07;14.10;;;;;;;23.87;56.38;97718.53;8250744;28;20473;-78
2022/08/26 06:38:13;;;;;;;23.80;13.77;;;;;;;24.12;55.95;97716.00;8250461;28;20237;-78
2022/08/26 06:42:15;;;;;;;24.03;12.93;;;;;;;24.24;55.88;97704.16;8250250;28;20514;-78
2022/08/26 06:46:21;;;;;;;27.20;14.47;;;;;;;24.29;55.65;97712.41;8249939;28;20515;-78
2022/08/26 06:50:25;;;;;;;26.27;14.33;;;;;;;24.18;56.67;97715.38;8250259;28;20234;-78
2022/08/26 06:54:30;;;;;;;28.43;12.70;;;;;;;24.35;56.33;97703.00;8249975;28;20301;-78
2022/08/26 06:58:38;;;;;;;27.27;13.60;;;;;;;24.40;56.55;97706.00;8250097;28;20238;-78
2022/08/26 07:02:42;;;;;;;33.90;13.90;;;;;;;24.43;57.03;97704.84;8249924;28;20234;-78
2022/08/26 07:06:51;;;;;;;30.63;12.23;;;;;;;24.81;56.00;97713.22;8250310;28;20229;-77
2022/08/26 07:10:55;;;;;;;36.43;14.20;;;;;;;24.78;56.22;97717.03;8249857;28;20242;-78
2022/08/26 07:14:58;;;;;;;29.13;13.37;;;;;;;25.22;55.30;97706.09;8250113;28;20570;-78
2022/08/26 07:19:01;;;;;;;24.17;12.43;;;;;;;25.58;53.85;97712.88;8249958;28;20264;-78
2022/08/26 07:23:06;;;;;;;30.60;12.10;;;;;;;25.68;54.48;97705.53;8249697;28;20407;-78
2022/08/26 07:27:16;;;;;;;25.47;12.00;;;;;;;25.84;53.53;97702.03;8249712;28;20254;-78
2022/08/26 07:31:20;;;;;;;28.10;11.80;;;;;;;25.75;54.13;97706.53;8249936;28;20412;-78
2022/08/26 07:35:22;;;;;;;29.43;12.00;;;;;;;25.95;53.73;97712.28;8249783;28;20252;-78
2022/08/26 07:39:27;;;;;;;31.87;12.40;;;;;;;26.20;52.85;97717.47;8249707;28;20241;-79
2022/08/26 07:43:34;;;;;;;25.67;11.70;;;;;;;26.53;52.18;97705.69;8249627;28;20469;-79
2022/08/26 07:47:37;;;;;;;33.87;11.87;;;;;;;26.78;51.78;97712.69;8249516;28;20236;-78
2022/08/26 07:51:40;;;;;;;24.03;10.83;;;;;;;27.09;50.45;97709.94;8249653;28;20235;-78
2022/08/26 07:55:44;;;;;;;36.10;11.70;;;;;;;27.24;50.87;97715.28;8249748;28;20242;-78
2022/08/26 07:59:47;;;;;;;28.70;12.17;;;;;;;27.44;49.67;97708.50;8249371;28;20243;-78
2022/08/26 08:03:51;;;;;;;26.17;10.73;;;;;;;27.74;49.48;97713.84;8249002;28;20231;-78
2022/08/26 08:07:54;;;;;;;24.93;10.37;;;;;;;27.71;48.48;97706.22;8249099;28;20234;-78
2022/08/26 08:12:19;;;;;;;31.53;11.63;;;;;;;27.92;48.26;97704.69;8251029;28;20238;-78
2022/08/26 08:16:23;;;;;;;30.17;11.50;;;;;;;27.82;47.99;97705.75;8255034;28;20241;-77
2022/08/26 08:20:27;;;;;;;26.07;9.50;;;;;;;28.26;47.45;97704.91;8254581;28;20237;-78
2022/08/26 08:24:29;;;;;;;29.47;10.80;;;;;;;28.11;47.23;97708.63;8254377;28;20248;-78
2022/08/26 08:28:34;;;;;;;26.20;10.20;;;;;;;28.33;46.71;97709.47;8254492;28;20234;-78
2022/08/26 08:32:38;;;;;;;24.67;9.60;;;;;;;28.92;46.36;97697.81;8254327;28;20247;-78
2022/08/26 08:36:41;;;;;;;27.60;10.57;;;;;;;28.75;45.63;97695.41;8254160;28;20246;-78
2022/08/26 08:40:45;;;;;;;23.03;9.00;;;;;;;29.36;45.58;97702.06;8254296;28;20293;-78
2022/08/26 08:44:50;;;;;;;26.30;9.73;;;;;;;29.49;44.29;97696.03;8253343;28;20237;-78
2022/08/26 08:48:57;;;;;;;27.30;9.80;;;;;;;29.86;43.95;97694.03;8254042;28;20524;-78
2022/08/26 08:53:10;;;;;;;21.73;9.63;;;;;;;29.99;43.63;97694.91;8253784;28;20246;-78
2022/08/26 08:57:19;;;;;;;24.13;8.77;;;;;;;30.59;42.76;97691.63;8253577;28;20233;-78
2022/08/26 09:01:38;;;;;;;26.90;8.70;;;;;;;30.74;40.54;97686.91;8253675;28;20271;-78
2022/08/26 09:05:43;;;;;;;26.20;8.57;;;;;;;30.56;41.11;97689.38;8253488;28;20278;-78
2022/08/26 09:09:54;;;;;;;26.67;8.43;;;;;;;30.11;42.63;97676.47;8253000;28;20480;-78
2022/08/26 09:13:57;;;;;;;27.83;8.73;;;;;;;30.19;42.06;97681.59;8253259;28;20237;-78
2022/08/26 09:18:11;;;;;;;27.90;9.07;;;;;;;29.99;43.00;97683.41;8253157;28;20232;-78
2022/08/26 09:22:28;;;;;;;30.93;9.50;;;;;;;30.44;41.79;97673.09;8252667;28;20309;-78
2022/08/26 09:26:44;;;;;;;25.83;8.70;;;;;;;31.15;40.57;97661.06;8252986;28;20582;-78
2022/08/26 09:31:04;;;;;;;24.30;8.67;;;;;;;31.67;40.58;97667.34;8252381;28;20322;-79
2022/08/26 09:35:25;;;;;;;28.73;8.93;;;;;;;32.19;38.88;97661.22;8252638;28;20240;-78
2022/08/26 09:39:32;;;;;;;31.27;8.40;;;;;;;32.75;37.80;97654.28;8252518;28;20243;-79
2022/08/26 09:43:35;;;;;;;30.97;9.10;;;;;;;32.97;37.85;97662.78;8252359;28;20236;-79
2022/08/26 09:47:41;;;;;;;25.73;8.00;;;;;;;33.40;36.33;97651.28;8252238;28;20254;-80
2022/08/26 09:51:45;;;;;;;26.53;8.33;;;;;;;33.41;37.11;97642.19;8252239;28;20235;-79
2022/08/26 09:56:10;;;;;;;28.10;7.87;;;;;;;32.55;38.05;97636.47;8251745;28;20246;-79
2022/08/26 10:00:30;;;;;;;26.83;7.77;;;;;;;32.63;37.16;97616.66;8251547;28;20233;-79
2022/08/26 10:04:34;;;;;;;29.57;8.37;;;;;;;33.07;34.26;97606.78;8251767;28;20232;-79
2022/08/26 10:08:42;;;;;;;30.92;8.57;;;;;;;32.75;35.03;97595.31;8252058;28;20547;-79
2022/08/26 10:12:59;;;;;;;27.77;7.97;;;;;;;33.27;34.95;97587.84;8251467;28;20418;-79
2022/08/26 10:17:03;;;;;;;29.03;8.00;;;;;;;32.20;35.55;97574.47;8251048;28;20234;-79
2022/08/26 10:21:10;;;;;;;31.63;7.67;;;;;;;33.11;34.56;97568.63;8250991;28;20289;-79
2022/08/26 10:25:17;;;;;;;21.87;6.80;;;;;;;33.69;32.60;97566.53;8250826;28;20238;-79
2022/08/26 10:29:23;;;;;;;23.80;6.83;;;;;;;34.06;32.27;97561.06;8250811;28;20243;-79
2022/08/26 10:33:26;;;;;;;27.13;6.40;;;;;;;34.06;31.91;97556.53;8250590;28;20244;-79
2022/08/26 10:37:35;;;;;;;25.13;6.28;;;;;;;33.03;32.42;97568.03;8250571;28;20404;-79
2022/08/26 10:41:41;;;;;;;18.85;6.00;;;;;;;33.76;31.27;97566.44;8250483;28;20240;-79
2022/08/26 10:45:48;;;;;;;20.05;6.32;;;;;;;34.04;30.56;97561.31;8250280;28;20432;-79
2022/08/26 10:49:53;;;;;;;19.40;5.43;;;;;;;34.46;29.68;97555.13;8249869;28;20237;-79
2022/08/26 10:54:04;;;;;;;20.70;6.85;;;;;;;33.96;30.62;97550.06;8250447;28;20238;-79
2022/08/26 10:58:23;;;;;;;20.52;6.30;;;;;;;34.23;30.96;97545.16;8250430;28;20249;-79
2022/08/26 11:02:35;;;;;;;27.77;5.60;;;;;;;34.89;30.24;97547.81;8250322;28;20241;-79
2022/08/26 11:06:39;;;;;;;19.58;5.80;;;;;;;35.02;30.37;97540.31;8250401;28;20241;-79
2022/08/26 11:10:55;;;;;;;21.80;6.72;;;;;;;35.18;29.75;97538.00;8250081;28;20516;-79
2022/08/26 11:15:02;;;;;;;22.35;6.40;;;;;;;35.10;29.50;97549.91;8250116;28;20334;-78
2022/08/26 11:19:08;;;;;;;17.75;5.63;;;;;;;35.30;29.77;97541.50;8250386;28;20542;-79
2022/08/26 11:23:45;;;;;;;21.77;6.28;;;;;;;35.66;28.76;97535.97;8249917;28;20238;-78
2022/08/26 11:27:58;;;;;;;15.27;5.85;;;;;;;35.75;28.52;97526.50;8249744;28;20316;-78
2022/08/26 11:32:02;;;;;;;17.95;5.80;;;;;;;35.77;28.53;97519.00;8250811;28;20433;-79
2022/08/26 11:36:05;;;;;;;17.48;5.35;;;;;;;36.10;28.32;97515.56;8251665;28;20262;-79
2022/08/26 11:40:16;;;;;;;17.98;5.40;;;;;;;35.09;28.86;97507.94;8249752;28;20424;-79
2022/08/26 11:44:21;;;;;;;23.65;5.70;;;;;;;34.73;29.76;97498.22;8249780;28;20252;-79
2022/08/26 11:48:29;;;;;;;17.40;5.80;;;;;;;34.03;30.43;97486.34;8255769;28;20240;-79
2022/08/26 11:52:32;;;;;;;20.10;5.20;;;;;;;33.55;31.75;97498.75;8255780;28;20241;-79
2022/08/26 11:56:36;;;;;;;16.60;5.60;;;;;;;33.20;31.58;97485.16;8255463;28;20529;-80
2022/08/26 12:00:52;;;;;;;18.60;5.72;;;;;;;33.56;31.85;97476.22;8256017;28;20246;-79
2022/08/26 12:04:57;;;;;;;20.35;6.05;;;;;;;34.12;31.68;97470.69;8255033;28;20411;-79
2022/08/26 12:09:01;;;;;;;16.47;6.10;;;;;;;33.38;32.62;97474.41;8256003;28;20244;-79
2022/08/26 12:13:07;;;;;;;18.05;6.30;;;;;;;33.41;32.55;97467.75;8254843;28;20232;-79
2022/08/26 12:17:11;;;;;;;17.65;5.85;;;;;;;33.37;33.18;97472.75;8255009;28;20244;-79
2022/08/26 12:21:21;;;;;;;20.58;6.47;;;;;;;33.46;32.59;97474.09;8254978;28;20241;-79
2022/08/26 12:25:26;;;;;;;21.55;6.15;;;;;;;33.40;32.54;97477.69;8254979;28;20474;-79
2022/08/26 12:29:32;;;;;;;19.55;5.30;;;;;;;32.89;33.00;97466.28;8254573;28;20252;-79
2022/08/26 12:33:35;;;;;;;15.68;5.15;;;;;;;32.71;32.57;97460.91;8254668;28;20240;-79
2022/08/26 12:37:45;;;;;;;23.55;6.60;;;;;;;33.15;29.25;97450.97;8255196;28;20246;-79
2022/08/26 12:41:50;;;;;;;18.90;5.43;;;;;;;34.07;29.56;97437.28;8254087;28;20238;-78
2022/08/26 12:45:57;;;;;;;15.73;5.45;;;;;;;34.47;28.94;97433.94;8253855;28;20253;-79
2022/08/26 12:50:03;;;;;;;16.48;5.43;;;;;;;34.68;29.90;97422.84;8254053;28;20257;-78
2022/08/26 12:54:14;;;;;;;22.60;6.38;;;;;;;34.78;29.31;97425.75;8254136;28;20249;-79
2022/08/26 12:58:27;;;;;;;22.23;6.50;;;;;;;33.34;31.98;97424.09;8253131;28;20238;-79
2022/08/26 13:02:37;;;;;;;20.58;6.53;;;;;;;33.08;32.39;97418.00;8253882;28;20241;-79
2022/08/26 13:06:40;;;;;;;15.90;5.80;;;;;;;33.92;31.22;97399.31;8254406;28;20241;-79
2022/08/26 13:10:47;;;;;;;19.90;6.10;;;;;;;33.34;31.68;97402.63;8253452;28;20248;-79
2022/08/26 13:14:50;;;;;;;17.92;5.72;;;;;;;34.26;31.30;97410.34;8252867;28;20241;-77
2022/08/26 13:18:55;;;;;;;20.83;6.45;;;;;;;34.48;30.10;97402.50;8253107;28;20264;-78
2022/08/26 13:22:58;;;;;;;18.75;5.93;;;;;;;34.81;29.63;97398.41;8253120;28;20430;-79
2022/08/26 13:27:04;;;;;;;18.42;5.70;;;;;;;34.84;28.95;97390.69;8252871;28;20433;-78
2022/08/26 13:31:07;;;;;;;19.80;6.25;;;;;;;34.76;28.53;97398.28;8252929;28;20569;-79
2022/08/26 13:35:10;;;;;;;23.85;6.03;;;;;;;33.38;30.17;97404.63;8253325;28;20234;-79
2022/08/26 13:39:13;;;;;;;17.17;5.82;;;;;;;33.22;31.32;97391.84;8252367;28;20234;-79
2022/08/26 13:43:17;;;;;;;18.05;5.45;;;;;;;32.80;31.59;97402.47;8252025;28;20236;-79
2022/08/26 13:47:20;;;;;;;19.20;4.82;;;;;;;32.40;31.56;97414.38;8251922;28;20245;-79
2022/08/26 13:51:23;;;;;;;14.90;5.05;;;;;;;32.08;32.13;97427.88;8251821;28;20230;-79
2022/08/26 13:55:26;;;;;;;12.77;4.88;;;;;;;31.85;32.68;97409.69;8251815;28;20244;-79
2022/08/26 13:59:31;;;;;;;16.57;5.57;;;;;;;31.53;32.32;97404.34;8251571;28;20260;-79
2022/08/26 14:03:33;;;;;;;21.83;6.77;;;;;;;30.97;36.76;97424.53;8251621;28;20255;-79
2022/08/26 14:07:36;;;;;;;17.83;6.03;;;;;;;30.60;38.55;97452.81;8251356;28;20240;-79
2022/08/26 14:11:39;;;;;;;18.90;6.00;;;;;;;30.36;38.83;97476.44;8251224;28;20430;-78
2022/08/26 14:16:00;;;;;;;16.83;5.77;;;;;;;30.13;38.80;97473.34;8250730;28;20243;-78
2022/08/26 14:20:04;;;;;;;16.57;5.97;;;;;;;30.02;38.32;97464.94;8251033;28;20227;-78
2022/08/26 14:24:07;;;;;;;17.03;5.90;;;;;;;29.47;39.50;97498.84;8250388;28;20496;-79
2022/08/26 14:28:10;;;;;;;28.93;6.90;;;;;;;28.45;43.53;97513.59;8250944;28;20518;-79
2022/08/26 14:32:21;;;;;;;28.90;7.63;;;;;;;26.85;51.84;97496.63;8250659;28;20300;-78
2022/08/26 14:36:31;;;;;;;34.20;8.17;;;;;;;24.97;60.32;97494.22;8250902;28;20241;-78
2022/08/26 14:40:34;;;;;;;16.93;7.07;;;;;;;24.73;59.75;97495.13;8250504;28;20237;-78
2022/08/26 14:44:42;;;;;;;16.77;6.23;;;;;;;26.04;56.82;97520.22;8250544;28;20233;-79
2022/08/26 14:48:46;;;;;;;18.10;7.20;;;;;;;26.19;59.26;97569.88;8250071;28;20435;-79
2022/08/26 14:57:11;;;;;;;33.83;8.77;;;;;;;25.81;59.76;97575.06;8249717;28;20415;-80
2022/08/26 15:01:14;;;;;;;22.63;8.73;;;;;;;26.00;60.42;97590.56;8249566;28;20241;-80
2022/08/26 15:05:19;;;;;;;22.13;7.03;;;;;;;25.85;59.26;97594.91;8250146;28;20305;-80
2022/08/26 15:09:23;;;;;;;16.00;5.97;;;;;;;25.02;61.05;97638.56;8249721;28;20437;-79
2022/08/26 15:13:25;;;;;;;13.30;5.07;;;;;;;24.87;59.18;97633.13;8249702;28;20235;-79
2022/08/26 15:17:30;;;;;;;20.27;6.40;;;;;;;24.82;60.12;97593.88;8249695;28;20267;-79
2022/08/26 15:21:35;;;;;;;19.87;6.90;;;;;;;24.79;61.00;97586.28;8251549;28;20236;-79
2022/08/26 15:25:38;;;;;;;16.97;7.10;;;;;;;25.11;60.78;97582.75;8255034;28;20234;-80
2022/08/26 15:29:42;;;;;;;17.80;7.03;;;;;;;25.18;60.66;97578.41;8254216;28;20235;-79
2022/08/26 15:33:45;;;;;;;20.50;7.17;;;;;;;25.31;60.83;97571.81;8254489;28;20248;-80
2022/08/26 15:37:50;;;;;;;14.77;5.60;;;;;;;25.22;59.56;97560.34;8254798;28;20241;-79
2022/08/26 15:41:58;;;;;;;12.77;5.47;;;;;;;25.16;59.82;97543.31;8255304;28;20237;-79
2022/08/26 15:46:01;;;;;;;12.73;5.70;;;;;;;25.14;60.64;97532.06;8255347;28;20236;-79
2022/08/26 15:50:05;;;;;;;13.30;5.60;;;;;;;25.12;61.32;97507.56;8255224;28;20245;-79
2022/08/26 15:54:09;;;;;;;13.23;5.50;;;;;;;25.24;60.55;97502.75;8254930;28;20243;-79
2022/08/26 15:58:12;;;;;;;13.93;6.10;;;;;;;25.27;60.96;97491.00;8254532;28;20427;-79
2022/08/26 16:02:17;;;;;;;18.33;6.30;;;;;;;24.93;62.01;97486.78;8254962;28;20296;-79
2022/08/26 16:06:22;;;;;;;11.17;5.63;;;;;;;25.02;62.39;97490.22;8254705;28;20248;-79
2022/08/26 16:10:27;;;;;;;12.83;5.90;;;;;;;24.95;61.98;97484.78;8254414;28;20247;-79
2022/08/26 16:14:29;;;;;;;18.27;6.87;;;;;;;25.06;63.37;97486.25;8254128;28;20533;-79
2022/08/26 16:18:32;;;;;;;14.00;6.20;;;;;;;25.18;62.52;97480.38;8254344;28;20240;-80
2022/08/26 16:22:35;;;;;;;16.43;6.30;;;;;;;24.94;61.70;97483.97;8253897;28;20247;-79
2022/08/26 16:26:41;;;;;;;11.20;5.30;;;;;;;24.95;61.19;97466.25;8253874;28;20254;-79
2022/08/26 16:30:44;;;;;;;10.73;4.90;;;;;;;24.93;59.51;97470.91;8253615;28;20240;-79
2022/08/26 16:34:47;;;;;;;12.23;5.40;;;;;;;24.86;61.36;97473.38;8251775;28;20237;-78
2022/08/26 16:38:58;;;;;;;11.30;5.67;;;;;;;24.84;61.73;97479.88;8253357;28;20313;-79
2022/08/26 16:43:02;;;;;;;7.77;4.60;;;;;;;24.63;59.66;97475.13;8252942;28;20241;-79
2022/08/26 16:47:05;;;;;;;12.03;5.10;;;;;;;24.24;61.14;97466.06;8252759;28;20520;-78
2022/08/26 16:51:10;;;;;;;11.83;5.33;;;;;;;24.26;61.50;97471.19;8252914;28;20237;-79
2022/08/26 16:55:16;;;;;;;12.23;5.03;;;;;;;24.36;61.35;97467.34;8252887;28;20539;-79
2022/08/26 16:59:20;;;;;;;13.00;5.87;;;;;;;24.37;61.49;97484.91;8252571;28;20234;-79
2022/08/26 17:03:24;;;;;;;22.60;14.43;;;;;;;24.37;61.88;97513.19;8252567;28;20554;-79
2022/08/26 17:07:26;;;;;;;11.27;5.63;;;;;;;24.28;62.38;97528.22;8252396;28;20536;-79
2022/08/26 17:11:29;;;;;;;12.83;5.70;;;;;;;24.25;61.88;97525.91;8252381;28;20286;-78
2022/08/26 17:15:34;;;;;;;13.67;6.40;;;;;;;24.23;61.65;97542.94;8252361;28;20489;-79
2022/08/26 17:19:40;;;;;;;14.23;8.03;;;;;;;24.20;62.44;97531.69;8252169;28;20241;-79
2022/08/26 17:23:49;;;;;;;15.23;8.20;;;;;;;24.19;62.52;97523.91;8251828;28;20246;-78
2022/08/26 17:27:52;;;;;;;12.10;6.87;;;;;;;24.20;62.59;97515.00;8251721;28;20440;-78
2022/08/26 17:31:57;;;;;;;14.80;8.10;;;;;;;24.22;62.39;97515.66;8251449;28;20298;-79
2022/08/26 17:36:00;;;;;;;23.27;13.60;;;;;;;24.17;63.11;97510.84;8251692;28;20249;-78
2022/08/26 17:40:05;;;;;;;17.90;11.17;;;;;;;24.10;63.07;97520.44;8251627;28;20245;-78
2022/08/26 17:44:08;;;;;;;13.03;5.70;;;;;;;24.14;63.63;97540.28;8251465;28;20254;-78
2022/08/26 17:48:12;;;;;;;13.67;6.20;;;;;;;24.04;64.20;97533.50;8251892;28;20411;-78
2022/08/26 17:52:15;;;;;;;11.27;5.70;;;;;;;24.04;64.98;97547.53;8251459;28;20554;-78
2022/08/26 17:56:22;;;;;;;12.00;6.03;;;;;;;24.12;64.13;97542.28;8250745;28;20228;-78
2022/08/26 18:00:26;;;;;;;12.57;6.60;;;;;;;23.95;64.15;97538.78;8250862;28;20537;-78
2022/08/26 18:04:31;;;;;;;12.67;6.83;;;;;;;23.98;64.40;97545.56;8250825;28;20242;-78
2022/08/26 18:08:34;;;;;;;12.13;7.00;;;;;;;24.06;64.91;97544.72;8250572;28;20246;-78
2022/08/26 18:12:38;;;;;;;15.77;6.90;;;;;;;23.91;65.71;97544.53;8250271;28;20322;-78
2022/08/26 18:16:41;;;;;;;16.87;7.50;;;;;;;23.97;65.57;97551.81;8249818;28;20248;-78
2022/08/26 18:20:45;;;;;;;15.00;7.00;;;;;;;24.06;65.75;97553.50;8250274;28;20234;-78
2022/08/26 18:24:54;;;;;;;16.40;8.07;;;;;;;24.07;65.29;97556.97;8249340;28;20239;-78
2022/08/26 18:29:01;;;;;;;16.83;7.70;;;;;;;24.07;65.29;97551.69;8250075;28;20296;-78
2022/08/26 18:33:04;;;;;;;14.43;7.30;;;;;;;24.08;65.95;97558.63;8249948;28;20345;-78
2022/08/26 18:37:08;;;;;;;11.23;7.07;;;;;;;24.15;65.66;97549.06;8249510;28;20339;-78
2022/08/26 18:41:17;;;;;;;12.37;7.50;;;;;;;24.17;65.49;97557.66;8249703;28;20236;-78
2022/08/26 18:45:19;;;;;;;14.93;7.37;;;;;;;24.07;65.71;97571.03;8249250;28;20245;-78
2022/08/26 18:49:22;;;;;;;10.33;7.20;;;;;;;24.05;65.74;97578.31;8249444;28;20521;-78
2022/08/26 18:53:27;;;;;;;13.27;7.20;;;;;;;24.04;66.00;97578.47;8249452;28;20294;-78
2022/08/26 18:57:30;;;;;;;9.97;6.97;;;;;;;24.05;65.84;97578.31;8248785;28;20241;-78
2022/08/26 19:01:34;;;;;;;14.03;7.03;;;;;;;24.07;66.07;97580.78;8249067;28;20238;-78